Clarity — WDI6692 — position and weather

sailwx.info

Track history (hours):
 
Tides and Currents Weather Stations Pressure Air Temp Water Temp Dewpoint Dewpoint Depression Visibility Wind Speed Wind Dir Waves Ship Positions

Clarity

Owner: OA Consortium, Whittier, CA. More information available from US FCC via Universal Licensing System and Coast Guard Vessel Documentation Center.

Last reported at 2017-Nov-07 15:23 UTC. Time now 2017-Nov-24 18:33 UTC.
Position N 32°35' W 117°13'.
Warning: this ship's position is 17 days out of date.

Length 24 m; draft 2 m.

Type: Pleasure craft. MMSI: 367721260.

Date/timePositionNaut miles runAvg speedWind from/ knotsBaromVisibWave heightAir tempDewpointWater temp
2017-Nov-07 15:23N 32°35' W 117°13'7 5.6
2017-Nov-07 14:06N 32°42' W 117°09'1 7.8
2017-Nov-07 13:59N 32°41' W 117°09'  
2017-Nov-03 23:20N 32°39' W 117°16'617.7
2017-Nov-03 23:00N 32°44' W 117°19'917.8
2017-Nov-03 22:30N 32°52' W 117°24'917.3
2017-Nov-03 22:00N 32°59' W 117°29'917.1
2017-Nov-03 21:30N 33°07' W 117°34'917.2
2017-Nov-03 21:00N 33°15' W 117°39'816.8
2017-Nov-03 20:30N 33°22' W 117°44'815.6
2017-Nov-03 19:59N 33°29' W 117°48'  
Track history (hours):
 
Tides and Currents Weather Stations Pressure Air Temp Water Temp Dewpoint Dewpoint Depression Visibility Wind Speed Wind Dir Waves Ship Positions

Clarity

Owner: OA Consortium, Whittier, CA. More information available from US FCC via Universal Licensing System and Coast Guard Vessel Documentation Center.

Last reported at 2017-Nov-07 15:23 UTC. Time now 2017-Nov-24 18:33 UTC.
Position N 32°35' W 117°13'.
Warning: this ship's position is 17 days out of date.

Length 24 m; draft 2 m.

Type: Pleasure craft. MMSI: 367721260.

Date/timePositionNaut miles runAvg speedWind from/ knotsBaromVisibWave heightAir tempDewpointWater temp
2017-Nov-07 15:23N 32°35' W 117°13'7 5.6
2017-Nov-07 14:06N 32°42' W 117°09'1 7.8
2017-Nov-07 13:59N 32°41' W 117°09'  
2017-Nov-03 23:20N 32°39' W 117°16'617.7
2017-Nov-03 23:00N 32°44' W 117°19'917.8
2017-Nov-03 22:30N 32°52' W 117°24'917.3
2017-Nov-03 22:00N 32°59' W 117°29'917.1
2017-Nov-03 21:30N 33°07' W 117°34'917.2
2017-Nov-03 21:00N 33°15' W 117°39'816.8
2017-Nov-03 20:30N 33°22' W 117°44'815.6
2017-Nov-03 19:59N 33°29' W 117°48'  

Dump ship's entire track history